Time;durP1;ratioP1;P1;durP2;ratioP2;P2;SDS_P1;SDS_P2;PMS_P1;PMS_P2;Temp;Humidity;BMP_temperature;BMP_pressure;BME280_temperature;BME280_humidity;BME280_pressure;Samples;Min_cycle;Max_cycle;Signal;HPM_P1;HPM_P2
2022/01/07 00:01:16;;;;;;;43.67;16.00;;;;;;;-4.24;97.81;100857.23;3701529;78;99148;-86
2022/01/07 00:06:19;;;;;;;42.03;14.97;;;;;;;-4.24;98.16;100858.05;3725524;78;99245;-86
2022/01/07 00:11:20;;;;;;;40.05;15.53;;;;;;;-4.22;98.21;100853.73;3712349;78;99144;-86
2022/01/07 00:16:21;;;;;;;36.57;13.77;;;;;;;-4.20;98.34;100855.07;3726381;78;99353;-86
2022/01/07 00:21:23;;;;;;;42.27;16.23;;;;;;;-4.18;98.52;100848.91;3704851;77;99549;-85
2022/01/07 00:26:24;;;;;;;37.27;15.83;;;;;;;-4.16;98.38;100838.69;3730642;78;99141;-85
2022/01/07 00:31:24;;;;;;;39.07;13.97;;;;;;;-4.16;98.53;100843.27;3663469;79;99949;-85
2022/01/07 00:36:26;;;;;;;37.50;14.37;;;;;;;-4.16;98.59;100834.66;3742079;77;99161;-84
2022/01/07 00:41:26;;;;;;;29.90;12.73;;;;;;;-4.10;99.03;100840.28;3732591;77;99098;-84
2022/01/07 00:46:27;;;;;;;33.83;14.00;;;;;;;-4.07;99.14;100838.94;3753502;77;99411;-84
2022/01/07 00:51:28;;;;;;;34.83;13.57;;;;;;;-4.03;99.37;100841.36;3732874;77;99211;-84
2022/01/07 00:56:29;;;;;;;32.00;11.63;;;;;;;-4.03;98.96;100834.64;3749723;77;99328;-83
2022/01/07 01:01:30;;;;;;;30.00;12.77;;;;;;;-4.03;99.15;100835.98;3763038;77;99478;-84
2022/01/07 01:06:31;;;;;;;36.30;13.93;;;;;;;-4.01;99.31;100831.95;3754861;77;99478;-84
2022/01/07 01:11:32;;;;;;;30.32;11.83;;;;;;;-3.99;99.60;100835.16;3704561;78;99073;-85
2022/01/07 01:16:34;;;;;;;38.43;12.57;;;;;;;-3.95;99.86;100835.42;3713458;77;99032;-84
2022/01/07 01:21:36;;;;;;;35.87;13.30;;;;;;;-3.90;100.00;100832.73;3671791;78;99131;-85
2022/01/07 01:26:37;;;;;;;37.80;12.20;;;;;;;-3.86;100.00;100832.45;3688733;78;99455;-84
2022/01/07 01:31:38;;;;;;;38.50;12.77;;;;;;;-3.81;100.00;100830.58;3751712;77;99363;-84
2022/01/07 01:36:39;;;;;;;35.53;13.10;;;;;;;-3.76;100.00;100839.16;3789829;77;99485;-83
2022/01/07 01:41:41;;;;;;;34.27;12.73;;;;;;;-3.70;100.00;100829.47;3711116;77;99220;-84
2022/01/07 01:46:42;;;;;;;30.13;11.77;;;;;;;-3.65;100.00;100829.43;3711490;78;99530;-84
2022/01/07 01:51:44;;;;;;;35.23;12.47;;;;;;;-3.63;100.00;100835.88;3670847;78;99250;-84
2022/01/07 01:56:44;;;;;;;29.60;12.50;;;;;;;-3.60;100.00;100830.76;3677349;79;99735;-84
2022/01/07 02:01:45;;;;;;;25.80;10.20;;;;;;;-3.58;100.00;100827.80;3660281;78;99346;-84
2022/01/07 02:06:46;;;;;;;27.00;10.57;;;;;;;-3.57;100.00;100825.38;3662463;78;99302;-84
2022/01/07 02:11:47;;;;;;;25.37;10.77;;;;;;;-3.54;100.00;100811.39;3667080;78;98952;-84
2022/01/07 02:16:48;;;;;;;27.97;9.03;;;;;;;-3.51;100.00;100818.36;3666927;78;98454;-84
2022/01/07 02:21:49;;;;;;;23.10;8.27;;;;;;;-3.49;100.00;100806.78;3658794;79;99014;-84
2022/01/07 02:26:50;;;;;;;30.10;8.77;;;;;;;-3.46;100.00;100803.55;3699499;78;99550;-84
2022/01/07 02:31:51;;;;;;;30.40;9.33;;;;;;;-3.44;100.00;100806.76;3690395;78;99556;-83
2022/01/07 02:36:53;;;;;;;23.43;8.70;;;;;;;-3.43;100.00;100804.89;3689536;78;99137;-84
2022/01/07 02:41:53;;;;;;;25.20;8.80;;;;;;;-3.43;100.00;100798.98;3694032;78;98641;-84
2022/01/07 02:46:54;;;;;;;30.43;10.90;;;;;;;-3.42;100.00;100801.92;3721373;78;98892;-84
2022/01/07 02:51:55;;;;;;;26.27;9.97;;;;;;;-3.40;100.00;100813.73;3726634;78;99450;-84
2022/01/07 02:56:56;;;;;;;27.87;10.97;;;;;;;-3.38;100.00;100802.17;3735068;78;99160;-84
2022/01/07 03:01:57;;;;;;;24.40;9.50;;;;;;;-3.36;100.00;100798.12;3711997;78;99437;-84
2022/01/07 03:06:58;;;;;;;29.97;11.33;;;;;;;-3.34;100.00;100797.30;3722074;78;99648;-84
2022/01/07 03:11:59;;;;;;;22.70;10.17;;;;;;;-3.31;100.00;100789.22;3692909;78;99307;-84
2022/01/07 03:17:00;;;;;;;29.73;10.53;;;;;;;-3.27;100.00;100780.86;3694496;78;99347;-84
2022/01/07 03:22:01;;;;;;;26.20;10.10;;;;;;;-3.26;100.00;100778.42;3700582;78;99242;-84
2022/01/07 03:27:02;;;;;;;26.93;9.63;;;;;;;-3.22;100.00;100783.53;3712087;78;99403;-84
2022/01/07 03:32:03;;;;;;;29.33;8.80;;;;;;;-3.19;100.00;100787.81;3668166;78;99297;-84
2022/01/07 03:37:04;;;;;;;19.03;8.10;;;;;;;-3.19;100.00;100783.77;3649765;79;99226;-84
2022/01/07 03:42:06;;;;;;;26.97;10.93;;;;;;;-3.16;100.00;100785.11;3694011;77;99242;-84
2022/01/07 03:47:07;;;;;;;27.90;10.13;;;;;;;-3.17;100.00;100785.63;3730383;78;26159;-85
2022/01/07 03:52:08;;;;;;;21.77;9.43;;;;;;;-3.16;100.00;100784.55;3722793;77;99754;-85
2022/01/07 03:57:09;;;;;;;29.00;10.40;;;;;;;-3.13;100.00;100775.11;3742744;78;99511;-85
2022/01/07 04:02:11;;;;;;;22.07;9.70;;;;;;;-3.13;100.00;100778.63;3690653;76;99396;-84
2022/01/07 04:07:11;;;;;;;22.57;9.43;;;;;;;-3.12;100.00;100771.36;3711963;78;99232;-83
2022/01/07 04:12:12;;;;;;;18.93;7.67;;;;;;;-3.10;100.00;100768.66;3748159;77;99286;-85
2022/01/07 04:17:13;;;;;;;20.47;7.83;;;;;;;-3.10;100.00;100757.89;3760789;77;34827;-84
2022/01/07 04:22:14;;;;;;;24.35;8.65;;;;;;;-3.10;100.00;100753.03;3753168;77;99408;-85
2022/01/07 04:27:15;;;;;;;19.90;8.97;;;;;;;-3.10;100.00;100756.55;3725406;78;99583;-85
2022/01/07 04:32:16;;;;;;;21.17;9.53;;;;;;;-3.10;100.00;100753.03;3699529;77;99534;-84
2022/01/07 04:37:17;;;;;;;22.43;9.03;;;;;;;-3.09;100.00;100751.95;3691632;78;99643;-85
2022/01/07 04:42:18;;;;;;;22.17;7.80;;;;;;;-3.08;100.00;100743.59;3711396;78;99604;-84
2022/01/07 04:47:19;;;;;;;17.80;8.13;;;;;;;-3.07;100.00;100747.11;3744939;78;32394;-85
2022/01/07 04:52:21;;;;;;;19.73;7.77;;;;;;;-3.05;100.00;100740.36;3747081;77;99111;-84
2022/01/07 04:57:22;;;;;;;18.30;7.10;;;;;;;-3.04;100.00;100750.04;3773721;77;99237;-84
2022/01/07 05:02:23;;;;;;;19.67;7.37;;;;;;;-3.02;100.00;100749.20;3766531;77;99177;-84
2022/01/07 05:07:23;;;;;;;17.03;7.40;;;;;;;-3.01;100.00;100741.38;3774447;77;99584;-84
2022/01/07 05:12:24;;;;;;;20.97;7.77;;;;;;;-2.98;100.00;100737.33;3809756;75;99219;-84
2022/01/07 05:17:25;;;;;;;14.90;7.07;;;;;;;-2.97;100.00;100730.33;3707364;78;32517;-84
2022/01/07 05:22:26;;;;;;;19.87;7.07;;;;;;;-2.96;100.00;100741.91;3684864;78;99180;-84
2022/01/07 05:27:27;;;;;;;17.12;7.75;;;;;;;-2.94;100.00;100731.13;3713046;78;99341;-84
2022/01/07 05:32:28;;;;;;;17.57;7.67;;;;;;;-2.92;100.00;100730.29;3766219;77;99388;-85
2022/01/07 05:37:29;;;;;;;18.90;7.13;;;;;;;-2.90;100.00;100732.15;3761732;77;99171;-84
2022/01/07 05:42:29;;;;;;;21.73;7.67;;;;;;;-2.86;100.00;100725.66;3724880;78;99198;-84
2022/01/07 05:47:32;;;;;;;18.60;6.83;;;;;;;-2.82;100.00;100710.02;3718112;76;26273;-83
2022/01/07 05:52:33;;;;;;;17.37;7.23;;;;;;;-2.75;100.00;100704.28;3703583;77;99098;-84
2022/01/07 05:57:35;;;;;;;18.93;7.03;;;;;;;-2.68;100.00;100702.09;3734569;78;99059;-85
2022/01/07 06:02:36;;;;;;;19.40;7.92;;;;;;;-2.63;100.00;100700.70;3716884;77;99881;-84
2022/01/07 06:07:38;;;;;;;19.07;7.50;;;;;;;-2.58;100.00;100705.48;3681520;78;99772;-85
2022/01/07 06:12:39;;;;;;;15.73;6.60;;;;;;;-2.54;100.00;100700.33;3733304;77;99189;-85
2022/01/07 06:17:40;;;;;;;23.30;7.63;;;;;;;-2.49;100.00;100697.59;3730615;78;26559;-85
2022/01/07 06:22:41;;;;;;;18.20;7.60;;;;;;;-2.44;100.00;100712.36;3723683;78;99081;-85
2022/01/07 06:27:42;;;;;;;19.53;7.30;;;;;;;-2.38;100.00;100724.69;3709445;77;99050;-85
2022/01/07 06:32:43;;;;;;;17.13;7.43;;;;;;;-2.35;100.00;100720.09;3778783;76;99601;-85
2022/01/07 06:37:44;;;;;;;21.67;8.57;;;;;;;-2.30;100.00;100720.05;3777480;77;99129;-85
2022/01/07 06:42:45;;;;;;;19.20;8.00;;;;;;;-2.27;100.00;100717.58;3751098;77;99599;-85
2022/01/07 06:47:46;;;;;;;17.00;6.60;;;;;;;-2.23;100.00;100722.67;3743615;78;26529;-85
2022/01/07 06:52:47;;;;;;;21.33;8.13;;;;;;;-2.19;100.00;100720.20;3799078;76;99136;-85
2022/01/07 06:57:48;;;;;;;22.37;8.30;;;;;;;-2.14;100.00;100724.98;3812505;76;99008;-84
2022/01/07 07:02:49;;;;;;;22.30;8.53;;;;;;;-2.11;100.00;100719.56;3791317;76;99574;-85
2022/01/07 07:07:51;;;;;;;21.27;7.43;;;;;;;-2.08;100.00;100709.00;3786206;77;99463;-85
2022/01/07 07:12:53;;;;;;;22.30;7.70;;;;;;;-2.05;100.00;100708.44;3743958;77;99582;-85
2022/01/07 07:17:54;;;;;;;18.13;7.43;;;;;;;-2.00;100.00;100704.87;3775933;76;26149;-85
2022/01/07 07:22:54;;;;;;;24.03;8.80;;;;;;;-1.97;100.00;100701.05;3780884;76;99719;-84
2022/01/07 07:27:55;;;;;;;22.90;9.10;;;;;;;-2.01;100.00;100688.44;3773260;76;99294;-83
2022/01/07 07:32:56;;;;;;;19.83;7.90;;;;;;;-1.90;100.00;100700.72;3759132;77;99699;-83
2022/01/07 07:37:57;;;;;;;18.80;6.93;;;;;;;-1.88;100.00;100704.73;3764809;77;99271;-84
2022/01/07 07:42:58;;;;;;;18.07;6.93;;;;;;;-1.86;100.00;100700.41;3698372;78;99536;-84
2022/01/07 07:47:59;;;;;;;19.23;7.27;;;;;;;-1.83;100.00;100706.55;3734553;78;33611;-84
2022/01/07 07:53:00;;;;;;;17.77;7.57;;;;;;;-1.81;100.00;100707.08;3729179;78;99597;-84
2022/01/07 07:58:01;;;;;;;17.00;6.80;;;;;;;-1.78;100.00;100714.58;3717127;78;99452;-84
2022/01/07 08:03:02;;;;;;;19.90;8.07;;;;;;;-1.76;100.00;100725.91;3729747;77;99607;-84
2022/01/07 08:08:03;;;;;;;23.97;9.10;;;;;;;-1.74;100.00;100724.53;3759688;76;99259;-84
2022/01/07 08:18:11;;;;;;;20.55;8.35;;;;;;;-1.66;100.00;100720.36;3715350;75;98896;-85
2022/01/07 08:23:16;;;;;;;22.20;9.23;;;;;;;-1.59;100.00;100721.62;3760338;77;31555;-84
2022/01/07 08:28:20;;;;;;;23.73;8.48;;;;;;;-1.49;100.00;100712.05;3803873;77;98860;-84
2022/01/07 08:38:40;;;;;;;27.27;11.25;;;;;;;-1.16;100.00;100713.73;3772377;77;99324;-84
2022/01/07 08:48:51;;;;;;;27.15;9.28;;;;;;;-0.76;99.38;100709.59;3449350;83;98547;-82
2022/01/07 08:53:53;;;;;;;19.17;9.10;;;;;;;-0.61;99.16;100705.30;3429276;85;31774;-82
2022/01/07 08:58:57;;;;;;;25.20;10.17;;;;;;;-0.55;98.90;100704.11;3439815;83;98886;-84
2022/01/07 09:03:59;;;;;;;23.83;10.27;;;;;;;-0.55;98.03;100697.35;3396271;85;98194;-84
2022/01/07 09:09:00;;;;;;;23.95;9.93;;;;;;;-0.54;97.91;100689.49;3453313;83;99011;-83
2022/01/07 09:14:02;;;;;;;21.50;8.90;;;;;;;-0.52;97.91;100690.80;3435012;84;97956;-83
2022/01/07 09:19:03;;;;;;;22.70;8.57;;;;;;;-0.53;97.48;100676.22;3429421;83;99061;-84
2022/01/07 09:24:04;;;;;;;20.77;9.90;;;;;;;-0.44;97.07;100672.53;3431870;84;31690;-84
2022/01/07 09:29:05;;;;;;;22.87;9.30;;;;;;;-0.38;96.80;100674.60;3505482;82;98873;-84
2022/01/07 09:34:06;;;;;;;20.30;8.97;;;;;;;-0.32;96.13;100674.75;3544848;82;98695;-83
2022/01/07 09:39:07;;;;;;;22.87;8.67;;;;;;;-0.27;96.04;100665.20;3542471;81;98725;-83
2022/01/07 09:44:12;;;;;;;26.00;9.73;;;;;;;-0.18;95.79;100653.38;3549215;82;99444;-83
2022/01/07 09:49:13;;;;;;;24.23;9.50;;;;;;;-0.08;95.37;100642.36;3541260;80;99461;-84
2022/01/07 09:54:14;;;;;;;20.93;8.30;;;;;;;0.03;94.36;100644.56;3603887;79;98834;-83
2022/01/07 09:59:15;;;;;;;24.17;9.43;;;;;;;0.14;94.32;100643.25;3603654;80;98240;-82
2022/01/07 10:04:34;;;;;;;21.30;8.17;;;;;;;0.26;94.48;100630.53;3588497;80;98210;-83
2022/01/07 10:09:35;;;;;;;18.37;7.73;;;;;;;0.37;94.16;100629.20;3600253;79;98905;-81
2022/01/07 10:14:36;;;;;;;24.30;9.17;;;;;;;0.46;93.92;100624.68;3607011;80;98755;-81
2022/01/07 10:19:41;;;;;;;20.73;10.13;;;;;;;0.53;93.04;100616.39;3599984;80;98556;-81
2022/01/07 10:24:58;;;;;;;22.80;9.33;;;;;;;0.62;92.87;100617.81;3609537;80;99110;-81
2022/01/07 10:29:59;;;;;;;22.07;7.58;;;;;;;0.72;93.41;100616.22;3600998;80;98672;-83
2022/01/07 10:35:16;;;;;;;18.70;8.10;;;;;;;0.83;91.87;100605.39;3603270;80;98330;-81
2022/01/07 10:40:38;;;;;;;22.57;8.60;;;;;;;0.92;92.72;100588.08;3599905;80;98856;-81
2022/01/07 10:45:50;;;;;;;18.17;7.97;;;;;;;1.03;92.07;100585.89;3607297;80;98890;-81
2022/01/07 10:50:53;;;;;;;19.73;8.13;;;;;;;1.12;91.67;100580.80;3587430;80;98813;-81
2022/01/07 10:56:14;;;;;;;16.87;7.23;;;;;;;1.17;91.65;100564.95;3605100;80;98574;-83
2022/01/07 11:01:23;;;;;;;19.37;6.33;;;;;;;1.22;90.30;100564.23;3599553;80;98864;-81
2022/01/07 11:06:27;;;;;;;20.83;7.57;;;;;;;1.27;90.30;100549.77;3600690;80;98743;-82
2022/01/07 11:11:30;;;;;;;18.10;7.30;;;;;;;1.31;89.63;100554.24;3604297;80;98391;-83
2022/01/07 11:16:31;;;;;;;15.93;6.37;;;;;;;1.36;89.51;100554.11;3606432;78;98517;-84
2022/01/07 11:21:33;;;;;;;19.80;8.70;;;;;;;1.39;87.30;100561.63;3598107;80;98646;-82
2022/01/07 11:26:40;;;;;;;29.47;10.40;;;;;;;1.42;88.65;100552.85;3604847;80;99060;-83
2022/01/07 11:31:40;;;;;;;;;;;;;;;1.47;88.48;100545.13;3595455;80;99199;-83
2022/01/07 11:36:41;;;;;;;25.10;9.40;;;;;;;1.52;88.49;100544.44;3611693;80;84706;-84
2022/01/07 11:41:56;;;;;;;23.97;8.60;;;;;;;1.59;88.04;100533.92;3594551;80;99338;-85
2022/01/07 11:47:21;;;;;;;21.87;8.98;;;;;;;1.62;87.76;100525.17;3568611;80;98872;-85
2022/01/07 11:52:37;;;;;;;22.02;9.63;;;;;;;1.63;86.96;100528.66;3441590;82;98459;-86
2022/01/07 11:57:58;;;;;;;17.93;8.57;;;;;;;1.57;84.59;100525.86;3492859;82;98867;-86
2022/01/07 12:03:02;;;;;;;20.17;7.47;;;;;;;1.53;86.00;100531.12;3504888;82;98757;-84
2022/01/07 12:08:03;;;;;;;19.17;8.00;;;;;;;1.52;85.91;100526.00;3508035;82;98744;-84
2022/01/07 12:13:04;;;;;;;27.00;10.33;;;;;;;1.55;85.69;100528.09;3495134;82;99175;-85
2022/01/07 12:18:09;;;;;;;20.80;8.50;;;;;;;1.60;85.70;100515.17;3510561;81;98912;-86
2022/01/07 12:23:20;;;;;;;18.67;8.33;;;;;;;1.64;85.93;100509.37;3512130;81;98417;-85
2022/01/07 12:28:22;;;;;;;24.83;9.40;;;;;;;1.68;83.90;100498.13;3503275;82;98660;-85
2022/01/07 12:33:23;;;;;;;26.17;9.63;;;;;;;1.71;85.37;100490.70;3515468;82;98688;-86
2022/01/07 12:38:25;;;;;;;17.53;6.83;;;;;;;1.74;85.02;100486.02;3498397;81;99090;-85
2022/01/07 12:43:34;;;;;;;18.80;7.72;;;;;;;1.77;84.66;100476.44;3492597;82;99256;-84
2022/01/07 12:48:40;;;;;;;24.63;8.87;;;;;;;1.80;85.06;100471.75;3533767;81;99063;-85
2022/01/07 12:54:03;;;;;;;16.20;7.00;;;;;;;1.83;84.11;100462.96;3539323;81;28232;-85
2022/01/07 12:59:16;;;;;;;23.00;7.93;;;;;;;1.84;83.81;100464.00;3536717;81;98976;-87
2022/01/07 13:04:21;;;;;;;19.07;7.70;;;;;;;1.84;83.36;100458.58;3600599;80;98974;-85
2022/01/07 13:09:30;;;;;;;22.27;7.40;;;;;;;1.83;83.23;100454.82;3599840;79;98832;-85
2022/01/07 13:14:31;;;;;;;18.60;6.97;;;;;;;1.82;83.16;100458.11;3602874;80;97854;-86
2022/01/07 13:19:32;;;;;;;15.73;7.43;;;;;;;1.84;83.51;100454.52;3598027;79;98606;-85
2022/01/07 13:24:33;;;;;;;19.37;7.87;;;;;;;1.86;83.63;100448.77;3597114;80;99082;-85
2022/01/07 13:29:34;;;;;;;18.67;8.27;;;;;;;1.86;82.71;100452.27;3596351;80;98793;-86
2022/01/07 13:34:40;;;;;;;21.80;7.47;;;;;;;1.87;83.10;100449.78;3607116;80;99137;-85
2022/01/07 13:39:45;;;;;;;18.87;7.85;;;;;;;1.86;83.13;100446.84;3594413;80;98958;-86
2022/01/07 13:44:57;;;;;;;22.17;8.93;;;;;;;1.82;82.52;100428.81;3608672;79;99089;-87
2022/01/07 13:50:19;;;;;;;17.77;7.37;;;;;;;1.77;83.05;100422.19;3570559;80;98908;-85
2022/01/07 13:55:27;;;;;;;20.33;8.00;;;;;;;1.73;82.92;100427.45;3560439;81;99171;-85
2022/01/07 14:00:29;;;;;;;18.47;8.47;;;;;;;1.70;83.13;100418.58;3553527;81;99039;-86
2022/01/07 14:05:31;;;;;;;20.50;7.40;;;;;;;1.65;82.75;100405.17;3543228;82;26276;-86
2022/01/07 14:10:35;;;;;;;19.83;8.37;;;;;;;1.63;83.40;100403.34;3566673;80;98971;-84
2022/01/07 14:15:46;;;;;;;20.63;8.20;;;;;;;1.62;83.29;100402.30;3574370;81;99143;-85
2022/01/07 14:20:52;;;;;;;17.82;6.97;;;;;;;1.60;83.56;100412.11;3563265;81;98751;-84
2022/01/07 14:26:07;;;;;;;21.40;8.47;;;;;;;1.59;83.55;100396.17;3573985;78;99234;-85
2022/01/07 14:31:10;;;;;;;21.85;9.43;;;;;;;1.58;83.91;100370.95;3568073;81;98754;-87
2022/01/07 14:36:11;;;;;;;30.10;11.87;;;;;;;1.56;84.31;100373.74;3569311;81;26905;-84
2022/01/07 14:41:13;;;;;;;29.53;12.77;;;;;;;1.55;84.66;100370.25;3554545;82;98860;-85
2022/01/07 14:46:14;;;;;;;33.67;14.03;;;;;;;1.53;84.67;100369.75;3572088;80;98658;-85
2022/01/07 14:51:15;;;;;;;32.63;12.98;;;;;;;1.50;84.93;100367.69;3566202;81;98970;-86
2022/01/07 14:56:16;;;;;;;42.20;17.07;;;;;;;1.47;84.99;100372.92;3535033;82;99313;-85
2022/01/07 15:01:18;;;;;;;27.40;11.05;;;;;;;1.45;85.15;100377.34;3571366;80;99282;-87
2022/01/07 15:06:19;;;;;;;32.50;13.00;;;;;;;1.42;85.02;100373.89;3571283;81;98027;-87
2022/01/07 15:11:21;;;;;;;31.50;12.83;;;;;;;1.40;84.77;100372.61;3575162;80;98515;-88
2022/01/07 15:16:38;;;;;;;29.53;12.00;;;;;;;1.37;84.97;100380.82;3577296;80;97803;-89
2022/01/07 15:21:39;;;;;;;30.23;13.78;;;;;;;1.33;85.42;100369.03;3564281;81;98774;-87
2022/01/07 15:26:42;;;;;;;33.50;14.93;;;;;;;1.31;85.70;100375.31;3566035;81;98936;-86
2022/01/07 15:31:43;;;;;;;27.77;11.53;;;;;;;1.30;85.70;100375.08;3506817;81;98572;-86
2022/01/07 15:36:45;;;;;;;29.60;12.55;;;;;;;1.29;85.98;100361.29;3572694;80;99294;-88
2022/01/07 15:41:49;;;;;;;38.70;16.07;;;;;;;1.26;86.02;100354.35;3566613;81;98905;-88
2022/01/07 15:46:50;;;;;;;35.40;17.13;;;;;;;1.24;85.87;100363.34;3558986;81;99396;-87
2022/01/07 15:51:50;;;;;;;35.17;16.03;;;;;;;1.20;86.28;100353.69;3546362;81;99090;-87
2022/01/07 15:56:51;;;;;;;38.47;14.83;;;;;;;1.17;86.42;100344.86;3460650;83;99455;-88
2022/01/07 16:01:52;;;;;;;40.27;16.87;;;;;;;1.14;86.30;100348.73;3567528;79;98746;-88
2022/01/07 16:06:53;;;;;;;35.27;14.27;;;;;;;1.12;86.39;100345.55;3580473;81;98853;-86
2022/01/07 16:11:54;;;;;;;28.30;13.83;;;;;;;1.12;86.39;100349.61;3564175;81;98219;-86
2022/01/07 16:16:55;;;;;;;29.30;13.90;;;;;;;1.10;86.34;100347.22;3571362;81;99107;-88
2022/01/07 16:21:55;;;;;;;29.63;12.33;;;;;;;1.10;86.68;100353.98;3543292;80;99436;-86
2022/01/07 16:26:56;;;;;;;26.40;11.50;;;;;;;1.09;86.82;100348.33;3525591;82;99532;-88
2022/01/07 16:31:57;;;;;;;30.97;13.83;;;;;;;1.11;86.61;100358.86;3556783;82;99332;-84
2022/01/07 16:36:58;;;;;;;34.47;15.40;;;;;;;1.12;86.30;100352.33;3555572;80;99052;-86
2022/01/07 16:41:59;;;;;;;33.93;14.33;;;;;;;1.12;86.58;100349.06;3549296;82;98841;-89
2022/01/07 16:47:02;;;;;;;29.10;14.03;;;;;;;1.14;85.97;100348.73;3541898;82;98784;-90
2022/01/07 16:52:05;;;;;;;27.40;11.35;;;;;;;1.14;86.30;100345.47;3592425;80;98671;-87
2022/01/07 16:57:07;;;;;;;31.03;12.30;;;;;;;1.14;86.31;100342.77;3573647;79;98905;-88
2022/01/07 17:02:08;;;;;;;35.90;14.07;;;;;;;1.14;86.31;100333.82;3560165;81;98895;-84
2022/01/07 17:07:08;;;;;;;32.53;14.33;;;;;;;1.12;86.21;100326.03;3563014;79;99222;-83
2022/01/07 17:12:10;;;;;;;29.70;13.47;;;;;;;1.11;86.24;100321.70;3564542;80;98658;-86
2022/01/07 17:17:11;;;;;;;29.63;12.83;;;;;;;1.10;86.15;100322.83;3587991;78;98972;-85
2022/01/07 17:22:11;;;;;;;35.07;15.93;;;;;;;1.09;86.11;100319.88;3571826;80;98711;-87
2022/01/07 17:27:15;;;;;;;35.87;13.97;;;;;;;1.07;86.28;100322.12;3504077;82;98128;-85
2022/01/07 17:32:16;;;;;;;32.97;14.37;;;;;;;1.07;86.43;100322.66;3539124;80;98833;-86
2022/01/07 17:37:21;;;;;;;36.27;15.00;;;;;;;1.05;86.60;100322.19;3653359;80;98892;-88
2022/01/07 17:42:22;;;;;;;29.47;14.23;;;;;;;1.04;86.27;100328.16;3636243;80;98902;-86
2022/01/07 17:47:23;;;;;;;33.63;14.27;;;;;;;1.04;86.62;100325.45;3646979;80;34919;-86
2022/01/07 17:52:24;;;;;;;38.50;14.80;;;;;;;1.03;86.69;100325.21;3637550;80;99010;-85
2022/01/07 17:57:27;;;;;;;34.97;14.77;;;;;;;1.05;86.59;100331.10;3660822;80;99270;-86
2022/01/07 18:02:28;;;;;;;30.77;14.83;;;;;;;1.06;86.56;100325.95;3602815;80;98302;-87
2022/01/07 18:07:29;;;;;;;33.20;14.90;;;;;;;1.08;86.55;100324.25;3557712;82;99198;-88
2022/01/07 18:12:31;;;;;;;34.47;14.67;;;;;;;1.08;86.44;100325.06;3564044;81;99143;-86
2022/01/07 18:17:38;;;;;;;30.47;13.27;;;;;;;1.10;86.44;100321.47;3651603;80;34938;-91
2022/01/07 18:22:41;;;;;;;36.00;14.00;;;;;;;1.12;86.17;100316.55;3635142;80;98709;-86
2022/01/07 18:27:43;;;;;;;29.33;12.83;;;;;;;1.15;86.24;100315.12;3651242;80;98635;-87
2022/01/07 18:32:44;;;;;;;26.17;12.27;;;;;;;1.18;86.35;100321.24;3631931;79;98830;-86
2022/01/07 18:37:45;;;;;;;28.03;11.93;;;;;;;1.18;86.24;100313.11;3660383;80;99232;-85
2022/01/07 18:42:49;;;;;;;28.70;12.67;;;;;;;1.20;86.10;100313.61;3641742;79;99166;-89
2022/01/07 18:47:50;;;;;;;33.27;13.30;;;;;;;1.20;86.10;100313.61;3640465;80;26530;-86
2022/01/07 18:52:53;;;;;;;31.13;13.40;;;;;;;1.23;86.33;100319.19;3549113;82;98659;-85
2022/01/07 18:57:54;;;;;;;29.48;12.50;;;;;;;1.24;86.44;100314.00;3574292;82;98331;-89
2022/01/07 19:02:55;;;;;;;32.77;13.13;;;;;;;1.25;86.39;100313.42;3551092;81;98195;-85
2022/01/07 19:07:57;;;;;;;32.77;15.70;;;;;;;1.20;88.39;100302.77;3529129;82;99295;-87
2022/01/07 19:12:58;;;;;;;36.27;16.03;;;;;;;1.20;88.39;100302.77;3532963;82;98892;-87
2022/01/07 19:17:59;;;;;;;31.10;14.20;;;;;;;1.14;89.36;100309.43;3523285;82;35310;-85
2022/01/07 19:22:59;;;;;;;30.93;13.33;;;;;;;1.09;90.39;100310.97;3526643;82;98599;-88
2022/01/07 19:28:00;;;;;;;30.33;15.10;;;;;;;1.04;91.54;100312.48;3515111;81;99082;-86
2022/01/07 19:33:01;;;;;;;30.57;14.37;;;;;;;0.98;92.41;100304.23;3519432;82;99235;-87
2022/01/07 19:38:04;;;;;;;31.97;16.07;;;;;;;0.93;93.03;100300.34;3469317;84;99273;-88
2022/01/07 19:43:07;;;;;;;29.30;14.10;;;;;;;0.88;93.89;100303.20;3501974;82;99190;-86
2022/01/07 19:48:10;;;;;;;63.17;25.67;;;;;;;0.83;94.18;100292.52;3505492;81;99000;-87
2022/01/07 19:53:12;;;;;;;52.20;18.83;;;;;;;0.80;95.08;100306.13;3566911;81;98944;-88
2022/01/07 19:58:13;;;;;;;35.33;17.13;;;;;;;0.73;95.12;100298.22;3588566;80;98941;-88
2022/01/07 20:03:15;;;;;;;33.33;15.27;;;;;;;0.62;96.26;100286.08;3591302;80;99296;-87
2022/01/07 20:08:16;;;;;;;32.30;14.90;;;;;;;0.64;96.84;100290.07;3581841;80;99588;-87
2022/01/07 20:13:21;;;;;;;34.33;15.85;;;;;;;0.55;98.35;100286.53;3599271;80;98417;-87
2022/01/07 20:18:23;;;;;;;38.40;19.03;;;;;;;0.55;98.35;100286.53;3595700;80;98955;-88
2022/01/07 20:23:25;;;;;;;37.73;17.40;;;;;;;0.51;99.10;100286.12;3598066;80;26886;-88
2022/01/07 20:28:26;;;;;;;29.18;15.18;;;;;;;0.49;99.72;100277.50;3596322;80;99066;-87
2022/01/07 20:33:27;;;;;;;31.03;15.17;;;;;;;0.48;99.83;100273.20;3574013;80;98848;-89
2022/01/07 20:38:29;;;;;;;37.70;17.80;;;;;;;0.46;100.00;100265.97;3593442;80;99388;-86
2022/01/07 20:43:30;;;;;;;34.13;16.20;;;;;;;0.44;100.00;100264.92;3604376;80;99326;-87
2022/01/07 20:48:31;;;;;;;37.77;16.73;;;;;;;0.46;100.00;100262.72;3600826;79;108615;-88
2022/01/07 20:53:35;;;;;;;30.97;14.07;;;;;;;0.45;100.00;100265.16;3596228;79;36102;-89
2022/01/07 20:58:37;;;;;;;36.83;17.23;;;;;;;0.46;100.00;100270.03;3595715;80;99222;-87
2022/01/07 21:03:42;;;;;;;33.73;17.30;;;;;;;0.46;100.00;100267.32;3586388;80;98821;-86
2022/01/07 21:08:43;;;;;;;31.48;16.57;;;;;;;0.45;100.00;100254.91;3582619;80;98966;-85
2022/01/07 21:13:45;;;;;;;33.33;15.43;;;;;;;0.46;100.00;100253.24;3582128;80;99139;-87
2022/01/07 21:18:46;;;;;;;33.88;14.50;;;;;;;0.49;100.00;100254.49;3592969;80;99120;-87
2022/01/07 21:23:47;;;;;;;31.70;15.17;;;;;;;0.49;100.00;100250.43;3591818;80;35305;-85
2022/01/07 21:28:49;;;;;;;29.97;15.27;;;;;;;0.49;100.00;100236.89;3585501;80;99161;-86
2022/01/07 21:33:50;;;;;;;35.23;17.20;;;;;;;0.51;100.00;100238.75;3598876;80;98013;-86
2022/01/07 21:38:51;;;;;;;35.53;16.43;;;;;;;0.52;100.00;100243.05;3584885;80;99250;-85
2022/01/07 21:43:52;;;;;;;35.70;16.03;;;;;;;0.51;100.00;100235.47;3597144;77;99218;-85
2022/01/07 21:48:53;;;;;;;35.13;16.77;;;;;;;0.50;100.00;100242.58;3541133;81;98980;-85
2022/01/07 21:53:56;;;;;;;35.40;17.25;;;;;;;0.51;100.00;100245.52;3544718;82;34852;-86
2022/01/07 21:58:57;;;;;;;33.33;15.53;;;;;;;0.53;100.00;100240.58;3539952;82;99207;-85
2022/01/07 22:03:58;;;;;;;33.38;15.68;;;;;;;0.53;100.00;100237.87;3583260;80;98711;-85
2022/01/07 22:08:59;;;;;;;35.20;16.23;;;;;;;0.53;100.00;100227.04;3539377;80;99396;-86
2022/01/07 22:14:02;;;;;;;32.70;15.90;;;;;;;0.53;100.00;100229.75;3514096;82;98256;-85
2022/01/07 22:19:04;;;;;;;35.33;16.30;;;;;;;0.51;100.00;100230.05;3532612;80;98939;-86
2022/01/07 22:24:04;;;;;;;41.23;15.90;;;;;;;0.52;100.00;100228.97;3533276;82;34929;-85
2022/01/07 22:29:06;;;;;;;29.23;14.58;;;;;;;0.49;100.00;100221.46;3507854;81;98618;-84
2022/01/07 22:34:08;;;;;;;32.10;16.03;;;;;;;0.48;100.00;100218.52;3586284;81;98848;-84
2022/01/07 22:39:10;;;;;;;29.63;14.38;;;;;;;0.46;100.00;100221.30;3532359;82;99470;-84
2022/01/07 22:44:11;;;;;;;33.13;14.53;;;;;;;0.45;100.00;100207.53;3547579;79;99539;-85
2022/01/07 22:49:13;;;;;;;30.93;14.73;;;;;;;0.47;100.00;100209.35;3544968;80;99074;-88
2022/01/07 22:54:15;;;;;;;27.40;15.10;;;;;;;0.46;100.00;100205.06;3557094;81;34839;-85
2022/01/07 22:59:16;;;;;;;31.70;16.03;;;;;;;0.46;100.00;100206.41;3559372;81;98287;-85
2022/01/07 23:04:17;;;;;;;36.17;15.90;;;;;;;0.45;100.00;100202.89;3611393;80;98934;-84
2022/01/07 23:09:20;;;;;;;32.60;15.90;;;;;;;0.46;100.00;100198.29;3616551;80;99363;-86
2022/01/07 23:14:25;;;;;;;28.37;14.40;;;;;;;0.46;100.00;100203.16;3607058;78;99026;-86
2022/01/07 23:19:27;;;;;;;29.87;15.83;;;;;;;0.45;100.00;100189.93;3593204;80;98702;-85